createdAt,value
2022-09-12T00:01:39.467Z,10.96
2022-09-12T00:04:27.029Z,10.94
2022-09-12T00:07:13.482Z,10.91
2022-09-12T00:10:00.343Z,10.88
2022-09-12T00:12:46.902Z,10.80
2022-09-12T00:15:34.286Z,10.73
2022-09-12T00:18:22.345Z,10.75
2022-09-12T00:21:09.220Z,10.81
2022-09-12T00:23:56.866Z,10.88
2022-09-12T00:26:43.398Z,10.86
2022-09-12T00:29:30.149Z,10.85
2022-09-12T00:32:17.035Z,10.74
2022-09-12T00:35:05.823Z,10.69
2022-09-12T00:37:52.263Z,10.63
2022-09-12T00:40:39.057Z,10.61
2022-09-12T00:43:38.384Z,10.54
2022-09-12T00:46:35.848Z,10.45
2022-09-12T00:49:28.187Z,10.41
2022-09-12T00:52:21.827Z,10.32
2022-09-12T00:55:13.950Z,10.26
2022-09-12T00:58:04.885Z,10.22
2022-09-12T01:00:51.852Z,10.16
2022-09-12T01:03:39.728Z,10.15
2022-09-12T01:06:29.758Z,10.07
2022-09-12T01:09:21.634Z,10.18
2022-09-12T01:12:09.740Z,10.25
2022-09-12T01:14:56.322Z,10.26
2022-09-12T01:17:55.220Z,10.33
2022-09-12T01:21:14.511Z,10.35
2022-09-12T01:24:35.677Z,10.28
2022-09-12T01:27:43.866Z,10.26
2022-09-12T01:30:51.637Z,10.28
2022-09-12T01:33:57.376Z,10.31
2022-09-12T01:36:56.128Z,10.33
2022-09-12T01:39:52.306Z,10.33
2022-09-12T01:42:48.398Z,10.25
2022-09-12T01:45:40.275Z,10.25
2022-09-12T01:48:33.453Z,10.34
2022-09-12T01:51:26.333Z,10.26
2022-09-12T01:54:18.581Z,10.05
2022-09-12T01:57:12.196Z,10.14
2022-09-12T02:00:03.805Z,10.08
2022-09-12T02:03:04.150Z,10.02
2022-09-12T02:05:57.617Z,10.03
2022-09-12T02:08:48.897Z,10.04
2022-09-12T02:11:39.778Z,10.09
2022-09-12T02:14:30.139Z,10.01
2022-09-12T02:17:22.178Z,10.02
2022-09-12T02:20:26.028Z,10.05
2022-09-12T02:23:25.789Z,10.11
2022-09-12T02:26:19.093Z,10.15
2022-09-12T02:29:06.231Z,10.19
2022-09-12T02:31:58.528Z,10.23
2022-09-12T02:34:52.551Z,10.20
2022-09-12T02:37:52.406Z,10.18
2022-09-12T02:40:40.560Z,10.21
2022-09-12T02:43:27.473Z,10.15
2022-09-12T02:46:21.130Z,10.11
2022-09-12T02:49:09.425Z,10.10
2022-09-12T02:51:56.774Z,10.07
2022-09-12T02:54:44.774Z,9.99
2022-09-12T02:57:33.030Z,9.88
2022-09-12T03:00:19.525Z,9.81
2022-09-12T03:03:22.936Z,9.73
2022-09-12T03:06:17.412Z,9.64
2022-09-12T03:09:13.659Z,9.60
2022-09-12T03:12:09.638Z,9.63
2022-09-12T03:15:13.442Z,9.69
2022-09-12T03:18:11.565Z,9.72
2022-09-12T03:21:03.761Z,9.72
2022-09-12T03:24:03.821Z,9.75
2022-09-12T03:26:56.100Z,9.78
2022-09-12T03:29:44.862Z,9.78
2022-09-12T03:32:43.543Z,9.76
2022-09-12T03:35:31.178Z,9.71
2022-09-12T03:38:18.334Z,9.70
2022-09-12T03:41:04.974Z,9.66
2022-09-12T03:43:51.772Z,9.68
2022-09-12T03:46:38.469Z,9.77
2022-09-12T03:49:26.733Z,9.69
2022-09-12T03:52:13.624Z,9.68
2022-09-12T03:55:00.261Z,9.57
2022-09-12T03:57:46.941Z,9.52
2022-09-12T04:00:33.725Z,9.48
2022-09-12T04:03:20.370Z,9.43
2022-09-12T04:06:09.402Z,9.43
2022-09-12T04:08:56.471Z,9.46
2022-09-12T04:11:43.293Z,9.43
2022-09-12T04:14:30.393Z,9.40
2022-09-12T04:17:17.399Z,9.44
2022-09-12T04:20:04.629Z,9.47
2022-09-12T04:22:52.455Z,9.51
2022-09-12T04:25:39.182Z,9.51
2022-09-12T04:28:26.779Z,9.49
2022-09-12T04:31:15.800Z,9.46
2022-09-12T04:34:02.735Z,9.39
2022-09-12T04:36:49.380Z,9.38
2022-09-12T04:39:37.712Z,9.33
2022-09-12T04:42:24.621Z,9.29
2022-09-12T04:45:13.230Z,9.28
2022-09-12T04:48:00.118Z,9.28
2022-09-12T04:50:46.879Z,9.28
2022-09-12T04:53:33.552Z,9.27
2022-09-12T04:56:22.520Z,9.26
2022-09-12T04:59:09.806Z,9.22
2022-09-12T05:01:56.413Z,9.20
2022-09-12T05:04:43.171Z,9.20
2022-09-12T05:07:29.883Z,9.20
2022-09-12T05:10:16.848Z,9.28
2022-09-12T05:13:05.001Z,9.38
2022-09-12T05:15:58.474Z,9.45
2022-09-12T05:18:46.810Z,9.52
2022-09-12T05:21:34.389Z,9.62
2022-09-12T05:24:21.109Z,9.67
2022-09-12T05:27:07.865Z,9.71
2022-09-12T05:29:56.858Z,9.77
2022-09-12T05:32:43.264Z,9.76
2022-09-12T05:35:30.291Z,9.77
2022-09-12T05:38:17.008Z,9.82
2022-09-12T05:41:06.367Z,9.86
2022-09-12T05:43:54.970Z,9.86
2022-09-12T05:46:44.253Z,9.95
2022-09-12T05:49:31.028Z,10.01
2022-09-12T05:52:17.941Z,10.09
2022-09-12T05:55:04.905Z,10.30
2022-09-12T05:57:52.127Z,10.45
2022-09-12T06:00:38.795Z,10.54
2022-09-12T06:03:26.905Z,10.64
2022-09-12T06:06:14.794Z,10.69
2022-09-12T06:09:04.146Z,10.63
2022-09-12T06:11:51.912Z,10.63
2022-09-12T06:14:38.987Z,10.62
2022-09-12T06:17:25.525Z,10.57
2022-09-12T06:20:13.952Z,10.58
2022-09-12T06:23:00.532Z,10.67
2022-09-12T06:25:48.420Z,10.84
2022-09-12T06:28:37.423Z,11.00
2022-09-12T06:31:27.344Z,11.03
2022-09-12T06:34:16.189Z,11.25
2022-09-12T06:37:04.794Z,11.37
2022-09-12T06:39:51.494Z,11.48
2022-09-12T06:42:38.269Z,11.60
2022-09-12T06:45:26.167Z,11.76
2022-09-12T06:48:12.567Z,11.77
2022-09-12T06:51:01.191Z,11.80
2022-09-12T06:53:51.698Z,11.96
2022-09-12T06:56:38.992Z,12.32
2022-09-12T06:59:26.015Z,12.68
2022-09-12T07:02:12.725Z,12.77
2022-09-12T07:04:59.305Z,12.86
2022-09-12T07:07:46.033Z,12.89
2022-09-12T07:10:34.011Z,12.97
2022-09-12T07:13:21.443Z,13.05
2022-09-12T07:16:08.798Z,13.09
2022-09-12T07:18:57.276Z,13.22
2022-09-12T07:21:43.701Z,13.28
2022-09-12T07:24:31.730Z,13.42
2022-09-12T07:27:19.938Z,13.57
2022-09-12T07:30:08.511Z,13.71
2022-09-12T07:32:55.178Z,13.89
2022-09-12T07:35:41.883Z,13.96
2022-09-12T07:38:28.581Z,14.01
2022-09-12T07:41:18.066Z,14.12
2022-09-12T07:44:06.766Z,14.13
2022-09-12T07:46:53.205Z,14.09
2022-09-12T07:49:39.984Z,14.27
2022-09-12T07:52:26.637Z,14.37
2022-09-12T07:55:13.549Z,14.43
2022-09-12T07:58:00.439Z,14.52
2022-09-12T08:00:48.170Z,14.66
2022-09-12T08:03:34.995Z,14.70
2022-09-12T08:06:24.281Z,14.83
2022-09-12T08:09:12.278Z,15.01
2022-09-12T08:11:59.024Z,15.08
2022-09-12T08:14:46.613Z,15.27
2022-09-12T08:17:34.503Z,15.41
2022-09-12T08:20:23.380Z,15.68
2022-09-12T08:23:13.097Z,15.78
2022-09-12T08:26:05.903Z,16.00
2022-09-12T08:28:53.505Z,16.43
2022-09-12T08:31:41.457Z,16.86
2022-09-12T08:34:29.723Z,17.04
2022-09-12T08:37:16.433Z,16.87
2022-09-12T08:40:06.837Z,16.64
2022-09-12T08:43:01.301Z,16.47
2022-09-12T08:45:55.484Z,16.53
2022-09-12T08:48:45.551Z,16.73
2022-09-12T08:51:36.343Z,16.76
2022-09-12T08:54:26.915Z,16.73
2022-09-12T08:57:16.336Z,16.75
2022-09-12T09:00:06.115Z,16.67
2022-09-12T09:03:34.612Z,16.56
2022-09-12T09:06:35.374Z,16.49
2022-09-12T09:09:31.150Z,16.54
2022-09-12T09:12:23.829Z,16.39
2022-09-12T09:15:25.155Z,16.53
2022-09-12T09:18:19.289Z,16.52
2022-09-12T09:21:23.009Z,16.71
2022-09-12T09:24:14.662Z,16.59
2022-09-12T09:27:23.472Z,16.93
2022-09-12T09:30:18.904Z,17.15
2022-09-12T09:33:07.659Z,17.40
2022-09-12T09:36:02.418Z,17.69
2022-09-12T09:38:51.125Z,17.75
2022-09-12T09:41:49.556Z,17.37
2022-09-12T09:44:38.210Z,17.48
2022-09-12T09:47:24.815Z,17.28
2022-09-12T09:50:17.031Z,17.35
2022-09-12T09:53:05.126Z,17.81
2022-09-12T09:55:55.172Z,18.01
2022-09-12T09:58:42.227Z,18.12
2022-09-12T10:01:30.612Z,18.38
2022-09-12T10:04:22.082Z,18.42
2022-09-12T10:07:19.422Z,18.50
2022-09-12T10:10:15.436Z,18.58
2022-09-12T10:13:11.015Z,18.75
2022-09-12T10:15:59.384Z,18.98
2022-09-12T10:18:47.653Z,19.03
2022-09-12T10:21:41.837Z,18.83
2022-09-12T10:24:32.218Z,18.49
2022-09-12T10:27:22.557Z,18.20
2022-09-12T10:30:19.446Z,17.97
2022-09-12T10:33:10.060Z,17.92
2022-09-12T10:36:04.776Z,17.93
2022-09-12T10:38:54.118Z,17.77
2022-09-12T10:41:42.511Z,17.56
2022-09-12T10:44:31.918Z,17.35
2022-09-12T10:47:24.359Z,17.05
2022-09-12T10:50:23.372Z,17.14
2022-09-12T10:53:20.720Z,17.22
2022-09-12T10:56:10.578Z,17.51
2022-09-12T10:59:20.224Z,18.04
2022-09-12T11:02:18.599Z,18.28
2022-09-12T11:05:12.426Z,18.57
2022-09-12T11:08:07.849Z,18.84
2022-09-12T11:11:00.880Z,19.01
2022-09-12T11:14:06.406Z,18.96
2022-09-12T11:17:00.264Z,19.22
2022-09-12T11:20:04.733Z,19.10
2022-09-12T11:23:20.563Z,18.98
2022-09-12T11:26:23.299Z,19.35
2022-09-12T11:29:22.291Z,19.41
2022-09-12T11:32:45.986Z,19.38
2022-09-12T11:35:34.640Z,19.42
2022-09-12T11:38:47.118Z,19.25
2022-09-12T11:41:38.990Z,19.33
2022-09-12T11:44:30.762Z,19.35
2022-09-12T11:47:20.314Z,19.60
2022-09-12T11:50:18.346Z,19.69
2022-09-12T11:53:13.024Z,19.75
2022-09-12T11:56:06.358Z,19.95
2022-09-12T11:59:00.453Z,19.90
2022-09-12T12:01:52.120Z,19.90
2022-09-12T12:04:44.785Z,20.05
2022-09-12T12:07:43.396Z,20.25
2022-09-12T12:10:37.851Z,20.42
2022-09-12T12:13:29.688Z,20.38
2022-09-12T12:16:24.376Z,20.23
2022-09-12T12:19:30.127Z,20.26
2022-09-12T12:22:19.259Z,20.21
2022-09-12T12:25:38.636Z,19.98
2022-09-12T12:29:01.070Z,19.91
2022-09-12T12:32:25.381Z,19.93
2022-09-12T12:35:42.331Z,19.83
2022-09-12T12:38:30.761Z,19.89
2022-09-12T12:41:44.196Z,19.86
2022-09-12T12:44:51.682Z,20.03
2022-09-12T12:47:45.289Z,20.03
2022-09-12T12:50:33.184Z,20.06
2022-09-12T12:53:25.006Z,20.11
2022-09-12T12:56:29.407Z,20.14
2022-09-12T12:59:24.068Z,20.09
2022-09-12T13:02:22.193Z,20.17
2022-09-12T13:05:20.501Z,20.04
2022-09-12T13:08:11.288Z,19.91
2022-09-12T13:11:02.389Z,19.70
2022-09-12T13:13:53.511Z,19.81
2022-09-12T13:16:52.867Z,19.64
2022-09-12T13:19:41.346Z,19.55
2022-09-12T13:22:41.066Z,19.46
2022-09-12T13:25:33.125Z,19.29
2022-09-12T13:28:21.062Z,19.11
2022-09-12T13:31:19.505Z,18.98
2022-09-12T13:34:09.832Z,19.01
2022-09-12T13:37:27.099Z,19.03
2022-09-12T13:40:31.509Z,19.01
2022-09-12T13:43:25.744Z,18.95
2022-09-12T13:46:17.589Z,18.94
2022-09-12T13:49:23.532Z,18.84
2022-09-12T13:52:18.652Z,18.96
2022-09-12T13:55:09.907Z,19.16
2022-09-12T13:57:59.279Z,19.10
2022-09-12T14:00:48.173Z,19.08
2022-09-12T14:03:58.898Z,19.22
2022-09-12T14:06:49.706Z,19.20
2022-09-12T14:09:40.585Z,19.27
2022-09-12T14:12:31.098Z,19.22
2022-09-12T14:15:22.238Z,19.59
2022-09-12T14:18:23.658Z,19.48
2022-09-12T14:21:13.329Z,19.18
2022-09-12T14:24:01.865Z,19.04
2022-09-12T14:26:49.547Z,18.97
2022-09-12T14:29:37.287Z,18.95
2022-09-12T14:32:27.562Z,18.88
2022-09-12T14:35:22.371Z,18.77
2022-09-12T14:38:15.020Z,18.88
2022-09-12T14:41:04.478Z,18.73
2022-09-12T14:43:55.513Z,18.75
2022-09-12T14:46:44.184Z,18.71
2022-09-12T14:49:34.714Z,18.69
2022-09-12T14:52:27.746Z,18.76
2022-09-12T14:55:30.694Z,18.66
2022-09-12T14:58:26.323Z,18.64
2022-09-12T15:01:30.793Z,18.55
2022-09-12T15:04:41.424Z,18.50
2022-09-12T15:07:34.685Z,18.57
2022-09-12T15:10:25.410Z,18.51
2022-09-12T15:13:21.120Z,18.46
2022-09-12T15:16:11.120Z,18.37
2022-09-12T15:18:57.899Z,18.37
2022-09-12T15:21:44.718Z,18.33
2022-09-12T15:24:32.786Z,18.34
2022-09-12T15:27:19.653Z,18.39
2022-09-12T15:30:07.533Z,18.33
2022-09-12T15:32:55.018Z,18.24
2022-09-12T15:35:41.546Z,18.16
2022-09-12T15:38:28.462Z,18.18
2022-09-12T15:41:19.847Z,18.18
2022-09-12T15:44:08.097Z,18.00
2022-09-12T15:46:54.664Z,18.11
2022-09-12T15:49:42.026Z,17.98
2022-09-12T15:52:28.901Z,17.92
2022-09-12T15:55:18.941Z,17.79
2022-09-12T15:58:07.483Z,17.79
2022-09-12T16:00:54.444Z,17.74
2022-09-12T16:03:41.808Z,17.57
2022-09-12T16:06:32.491Z,17.48
2022-09-12T16:09:23.880Z,17.46
2022-09-12T16:12:10.641Z,17.37
2022-09-12T16:14:58.938Z,17.31
2022-09-12T16:17:45.544Z,17.27
2022-09-12T16:20:32.075Z,17.21
2022-09-12T16:23:18.885Z,17.17
2022-09-12T16:26:07.535Z,17.13
2022-09-12T16:28:56.580Z,17.06
2022-09-12T16:31:44.980Z,17.02
2022-09-12T16:34:31.573Z,16.99
2022-09-12T16:37:18.560Z,16.96
2022-09-12T16:40:06.876Z,16.87
2022-09-12T16:42:53.858Z,16.78
2022-09-12T16:45:40.626Z,16.71
2022-09-12T16:48:28.723Z,16.65
2022-09-12T16:51:16.108Z,16.57
2022-09-12T16:54:02.768Z,16.37
2022-09-12T16:56:50.071Z,16.45
2022-09-12T16:59:36.478Z,16.41
2022-09-12T17:02:23.303Z,16.35
2022-09-12T17:05:11.562Z,16.27
2022-09-12T17:07:58.181Z,16.23
2022-09-12T17:10:45.024Z,16.18
2022-09-12T17:13:46.847Z,16.17
2022-09-12T17:16:41.867Z,16.19
2022-09-12T17:19:30.053Z,16.18
2022-09-12T17:22:17.859Z,16.08
2022-09-12T17:25:05.080Z,15.91
2022-09-12T17:27:51.951Z,15.89
2022-09-12T17:30:38.832Z,15.83
2022-09-12T17:33:25.655Z,15.81
2022-09-12T17:36:15.391Z,15.78
2022-09-12T17:39:05.068Z,15.74
2022-09-12T17:41:52.016Z,15.70
2022-09-12T17:44:38.670Z,15.65
2022-09-12T17:47:25.410Z,15.59
2022-09-12T17:50:30.848Z,15.51
2022-09-12T17:53:18.548Z,15.44
2022-09-12T17:56:07.834Z,15.38
2022-09-12T17:58:56.678Z,15.31
2022-09-12T18:02:00.731Z,15.25
2022-09-12T18:04:48.606Z,15.18
2022-09-12T18:07:38.156Z,15.14
2022-09-12T18:10:27.614Z,15.09
2022-09-12T18:13:16.283Z,15.05
2022-09-12T18:16:07.240Z,15.00
2022-09-12T18:18:53.646Z,14.96
2022-09-12T18:21:42.551Z,14.90
2022-09-12T18:24:40.092Z,14.82
2022-09-12T18:27:26.948Z,14.70
2022-09-12T18:30:21.406Z,14.67
2022-09-12T18:33:24.248Z,14.62
2022-09-12T18:36:13.495Z,14.56
2022-09-12T18:39:00.778Z,14.46
2022-09-12T18:41:48.069Z,14.40
2022-09-12T18:44:35.202Z,14.36
2022-09-12T18:47:23.471Z,14.30
2022-09-12T18:50:10.794Z,14.24
2022-09-12T18:52:59.748Z,14.21
2022-09-12T18:55:46.978Z,14.18
2022-09-12T18:58:33.791Z,14.13
2022-09-12T19:01:22.720Z,14.10
2022-09-12T19:04:12.774Z,14.08
2022-09-12T19:06:59.300Z,14.03
2022-09-12T19:09:46.109Z,13.98
2022-09-12T19:12:32.941Z,13.97
2022-09-12T19:15:19.589Z,13.95
2022-09-12T19:18:06.425Z,13.89
2022-09-12T19:20:54.709Z,13.86
2022-09-12T19:23:41.445Z,13.81
2022-09-12T19:26:29.535Z,13.77
2022-09-12T19:29:18.293Z,13.72
2022-09-12T19:32:04.826Z,13.69
2022-09-12T19:34:51.502Z,13.63
2022-09-12T19:37:39.650Z,13.61
2022-09-12T19:40:26.464Z,13.55
2022-09-12T19:43:13.423Z,13.48
2022-09-12T19:46:00.638Z,13.42
2022-09-12T19:48:48.288Z,13.38
2022-09-12T19:51:34.945Z,13.33
2022-09-12T19:54:24.652Z,13.28
2022-09-12T19:57:11.330Z,13.25
2022-09-12T19:59:58.101Z,13.19
2022-09-12T20:02:51.328Z,13.16
2022-09-12T20:05:42.519Z,13.11
2022-09-12T20:08:29.321Z,13.05
2022-09-12T20:11:19.207Z,12.98
2022-09-12T20:14:05.785Z,12.90
2022-09-12T20:16:52.620Z,12.87
2022-09-12T20:19:39.439Z,12.83
2022-09-12T20:22:26.180Z,12.74
2022-09-12T20:25:12.935Z,12.67
2022-09-12T20:28:01.246Z,12.60
2022-09-12T20:30:48.066Z,12.58
2022-09-12T20:33:35.484Z,12.55
2022-09-12T20:36:22.347Z,12.51
2022-09-12T20:39:08.919Z,12.52
2022-09-12T20:41:55.757Z,12.48
2022-09-12T20:44:44.039Z,12.50
2022-09-12T20:47:30.927Z,12.43
2022-09-12T20:50:17.816Z,12.39
2022-09-12T20:53:05.416Z,12.34
2022-09-12T20:55:52.401Z,12.29
2022-09-12T20:58:43.159Z,12.20
2022-09-12T21:01:33.015Z,12.07
2022-09-12T21:04:19.538Z,12.12
2022-09-12T21:07:06.290Z,12.10
2022-09-12T21:09:54.333Z,12.09
2022-09-12T21:12:41.071Z,12.09
2022-09-12T21:15:28.137Z,12.07
2022-09-12T21:18:16.106Z,12.05
2022-09-12T21:21:02.892Z,12.01
2022-09-12T21:23:50.772Z,11.96
2022-09-12T21:26:37.610Z,11.92
2022-09-12T21:29:24.265Z,11.90
2022-09-12T21:32:14.270Z,11.89
2022-09-12T21:35:02.433Z,11.84
2022-09-12T21:37:49.206Z,11.87
2022-09-12T21:40:35.557Z,11.86
2022-09-12T21:43:22.269Z,11.84
2022-09-12T21:46:09.795Z,11.85
2022-09-12T21:48:56.536Z,11.85
2022-09-12T21:51:44.634Z,11.79
2022-09-12T21:54:31.587Z,11.79
2022-09-12T21:57:18.307Z,11.77
2022-09-12T22:00:06.500Z,11.73
2022-09-12T22:02:54.906Z,11.68
2022-09-12T22:05:41.385Z,11.71
2022-09-12T22:08:30.927Z,11.67
2022-09-12T22:11:17.689Z,11.66
2022-09-12T22:14:04.473Z,11.65
2022-09-12T22:16:51.980Z,11.63
2022-09-12T22:19:38.645Z,11.60
2022-09-12T22:22:42.742Z,11.58
2022-09-12T22:25:31.257Z,11.59
2022-09-12T22:28:18.103Z,11.55
2022-09-12T22:31:05.276Z,11.55
2022-09-12T22:33:51.951Z,11.53
2022-09-12T22:36:39.271Z,11.57
2022-09-12T22:39:25.976Z,11.55
2022-09-12T22:42:15.089Z,11.53
2022-09-12T22:45:01.954Z,11.52
2022-09-12T22:47:49.173Z,11.53
2022-09-12T22:50:36.052Z,11.54
2022-09-12T22:53:22.932Z,11.55
2022-09-12T22:56:10.496Z,11.56
2022-09-12T22:58:58.592Z,11.56
2022-09-12T23:01:45.288Z,11.53
2022-09-12T23:04:33.169Z,11.49
2022-09-12T23:07:19.847Z,11.52
2022-09-12T23:10:07.460Z,11.53
2022-09-12T23:12:55.518Z,11.52
2022-09-12T23:15:43.835Z,11.49
2022-09-12T23:18:30.655Z,11.48
2022-09-12T23:21:19.782Z,11.46
2022-09-12T23:24:06.682Z,11.44
2022-09-12T23:26:53.570Z,11.46
2022-09-12T23:29:40.280Z,11.44
2022-09-12T23:32:28.649Z,11.43
2022-09-12T23:35:15.512Z,11.44
2022-09-12T23:38:04.629Z,11.47
2022-09-12T23:41:01.292Z,11.49
2022-09-12T23:43:49.827Z,11.46
2022-09-12T23:46:37.552Z,11.43
2022-09-12T23:49:27.527Z,11.48
2022-09-12T23:52:15.045Z,11.49
2022-09-12T23:55:03.327Z,11.54
2022-09-12T23:57:51.087Z,11.55
